createdAt,value
2022-10-22T00:02:07.279Z,49.82
2022-10-22T00:08:01.170Z,49.88
2022-10-22T00:14:29.877Z,49.92
2022-10-22T00:20:57.182Z,49.97
2022-10-22T00:27:21.188Z,50.15
2022-10-22T00:33:47.559Z,50.25
2022-10-22T00:40:18.373Z,50.21
2022-10-22T00:46:42.546Z,50.25
2022-10-22T00:53:07.217Z,50.29
2022-10-22T00:59:38.205Z,50.29
2022-10-22T01:06:04.443Z,50.36
2022-10-22T01:12:33.751Z,50.47
2022-10-22T01:19:07.115Z,50.54
2022-10-22T01:25:28.722Z,50.54
2022-10-22T01:32:00.610Z,50.56
2022-10-22T01:38:28.026Z,50.60
2022-10-22T01:51:07.571Z,50.82
2022-10-22T01:57:35.022Z,50.95
2022-10-22T02:04:11.787Z,51.06
2022-10-22T02:10:44.343Z,51.11
2022-10-22T02:17:18.856Z,51.18
2022-10-22T02:23:49.322Z,51.21
2022-10-22T02:30:12.182Z,51.29
2022-10-22T02:36:49.721Z,51.28
2022-10-22T02:43:19.253Z,51.25
2022-10-22T02:49:23.486Z,51.23
2022-10-22T02:55:30.653Z,51.39
2022-10-22T03:01:38.490Z,51.45
2022-10-22T03:08:03.548Z,51.51
2022-10-22T03:13:55.539Z,51.52
2022-10-22T03:20:13.366Z,51.61
2022-10-22T03:26:38.899Z,51.73
2022-10-22T03:32:56.161Z,51.81
2022-10-22T03:39:19.514Z,51.85
2022-10-22T03:45:43.009Z,51.88
2022-10-22T03:51:44.314Z,51.86
2022-10-22T03:58:22.993Z,51.86
2022-10-22T04:04:23.774Z,51.83
2022-10-22T04:17:33.031Z,51.87
2022-10-22T04:23:58.269Z,51.88
2022-10-22T04:30:36.252Z,51.94
2022-10-22T04:37:19.122Z,52.00
2022-10-22T04:43:39.259Z,51.95
2022-10-22T04:50:03.783Z,51.85
2022-10-22T04:56:58.725Z,51.52
2022-10-22T05:03:25.050Z,51.09
2022-10-22T05:09:49.797Z,50.69
2022-10-22T05:16:16.652Z,50.30
2022-10-22T05:23:14.982Z,49.78
2022-10-22T05:36:45.603Z,49.16
2022-10-22T05:43:12.121Z,48.81
2022-10-22T05:49:43.202Z,48.51
2022-10-22T05:56:07.508Z,48.22
2022-10-22T06:02:33.372Z,48.00
2022-10-22T06:08:57.731Z,47.74
2022-10-22T06:15:24.022Z,47.55
2022-10-22T06:21:48.703Z,47.40
2022-10-22T06:28:18.081Z,47.25
2022-10-22T06:35:05.439Z,47.24
2022-10-22T06:48:14.278Z,47.21
2022-10-22T06:54:38.605Z,47.18
2022-10-22T07:01:02.982Z,47.19
2022-10-22T07:07:34.509Z,47.28
2022-10-22T07:14:01.477Z,47.47
2022-10-22T07:20:25.839Z,47.64
2022-10-22T07:33:20.679Z,47.75
2022-10-22T07:39:14.891Z,47.63
2022-10-22T07:45:29.485Z,47.53
2022-10-22T07:58:35.154Z,47.25
2022-10-22T08:05:01.962Z,46.83
2022-10-22T08:11:28.310Z,46.73
2022-10-22T08:17:52.220Z,46.66
2022-10-22T08:24:16.247Z,46.55
2022-10-22T08:30:55.353Z,46.47
2022-10-22T08:37:19.563Z,46.40
2022-10-22T08:43:47.667Z,46.29
2022-10-22T08:50:24.259Z,46.24
2022-10-22T08:56:32.625Z,46.20
2022-10-22T09:02:57.241Z,45.67
2022-10-22T09:09:02.945Z,45.47
2022-10-22T09:15:47.343Z,45.46
2022-10-22T09:22:24.720Z,45.52
2022-10-22T09:28:41.553Z,45.16
2022-10-22T09:42:04.032Z,45.00
2022-10-22T09:48:28.570Z,45.06
2022-10-22T09:54:58.545Z,45.15
2022-10-22T10:01:24.256Z,45.19
2022-10-22T10:07:48.444Z,45.16
2022-10-22T10:14:25.601Z,45.18
2022-10-22T10:20:50.205Z,45.19
2022-10-22T10:27:17.533Z,45.16
2022-10-22T10:34:09.055Z,45.08
2022-10-22T10:40:58.025Z,45.24
2022-10-22T10:47:40.742Z,45.32
2022-10-22T10:54:15.370Z,45.45
2022-10-22T11:00:25.564Z,45.63
2022-10-22T11:13:47.720Z,45.65
2022-10-22T11:19:55.718Z,45.73
2022-10-22T11:33:41.383Z,46.08
2022-10-22T11:40:16.095Z,46.25
2022-10-22T11:46:23.663Z,46.42
2022-10-22T11:52:59.102Z,46.62
2022-10-22T11:59:07.615Z,46.80
2022-10-22T12:19:27.684Z,46.49
2022-10-22T12:25:59.179Z,46.57
2022-10-22T12:32:31.033Z,46.83
2022-10-22T12:38:57.890Z,46.92
2022-10-22T12:45:21.832Z,47.03
2022-10-22T12:51:48.842Z,47.05
2022-10-22T12:58:14.050Z,47.16
2022-10-22T13:04:46.921Z,47.23
2022-10-22T13:11:20.088Z,47.32
2022-10-22T13:17:52.619Z,47.31
2022-10-22T13:24:20.032Z,47.30
2022-10-22T13:30:49.814Z,46.99
2022-10-22T13:37:21.267Z,47.04
2022-10-22T13:43:48.018Z,47.38
2022-10-22T13:50:18.292Z,47.64
2022-10-22T13:56:35.889Z,47.84
2022-10-22T14:03:09.848Z,48.05
2022-10-22T14:09:07.521Z,48.21
2022-10-22T14:15:31.907Z,48.39
2022-10-22T14:21:40.410Z,48.50
2022-10-22T14:28:19.242Z,48.65
2022-10-22T14:34:44.096Z,48.75
2022-10-22T14:40:41.035Z,48.87
2022-10-22T14:47:22.005Z,48.95
2022-10-22T14:53:49.987Z,49.03
2022-10-22T15:00:16.614Z,49.13
2022-10-22T15:06:35.508Z,49.22
2022-10-22T15:13:01.118Z,49.31
2022-10-22T15:19:23.897Z,49.42
2022-10-22T15:25:50.514Z,49.50
2022-10-22T15:32:27.522Z,49.58
2022-10-22T15:38:47.107Z,49.73
2022-10-22T15:45:11.326Z,49.85
2022-10-22T15:51:36.997Z,50.04
2022-10-22T15:57:57.189Z,50.14
2022-10-22T16:04:25.291Z,50.28
2022-10-22T16:10:50.591Z,50.53
2022-10-22T16:17:15.536Z,50.89
2022-10-22T16:23:39.732Z,51.78
2022-10-22T16:30:06.062Z,52.38
2022-10-22T16:36:30.441Z,52.26
2022-10-22T16:42:53.467Z,52.23
2022-10-22T16:49:17.773Z,52.27
2022-10-22T16:55:36.218Z,52.09
2022-10-22T17:02:00.442Z,51.84
2022-10-22T17:08:25.636Z,51.53
2022-10-22T17:14:45.214Z,51.25
2022-10-22T17:21:10.965Z,50.96
2022-10-22T17:27:30.113Z,50.78
2022-10-22T17:33:54.407Z,50.74
2022-10-22T17:40:18.600Z,50.61
2022-10-22T17:46:44.075Z,50.41
2022-10-22T17:53:10.194Z,50.27
2022-10-22T17:59:24.566Z,50.16
2022-10-22T18:05:49.136Z,50.09
2022-10-22T18:12:13.449Z,50.06
2022-10-22T18:18:37.959Z,50.01
2022-10-22T18:25:01.968Z,49.97
2022-10-22T18:31:26.360Z,49.96
2022-10-22T18:37:51.979Z,49.94
2022-10-22T18:44:18.253Z,49.89
2022-10-22T18:50:42.721Z,49.86
2022-10-22T18:57:06.965Z,49.82
2022-10-22T19:03:32.657Z,49.79
2022-10-22T19:09:56.957Z,49.76
2022-10-22T19:16:23.378Z,49.77
2022-10-22T19:22:47.738Z,49.85
2022-10-22T19:29:12.122Z,49.92
2022-10-22T19:35:12.094Z,49.98
2022-10-22T19:41:37.718Z,50.07
2022-10-22T19:48:04.522Z,50.17
2022-10-22T19:54:23.056Z,50.20
2022-10-22T20:01:09.333Z,50.24
2022-10-22T20:07:33.903Z,50.32
2022-10-22T20:14:02.614Z,50.46
2022-10-22T20:20:28.482Z,50.56
2022-10-22T20:27:04.196Z,50.74
2022-10-22T20:33:29.519Z,51.10
2022-10-22T20:39:45.038Z,51.52
2022-10-22T20:46:09.012Z,51.92
2022-10-22T20:52:33.398Z,52.17
2022-10-22T20:58:57.398Z,52.31
2022-10-22T21:05:22.766Z,52.47
2022-10-22T21:11:47.723Z,52.53
2022-10-22T21:18:13.618Z,52.62
2022-10-22T21:24:51.826Z,52.50
2022-10-22T21:31:17.442Z,52.50
2022-10-22T21:38:15.722Z,52.81
2022-10-22T21:44:47.004Z,52.70
2022-10-22T21:51:15.253Z,52.73
2022-10-22T21:57:46.429Z,52.78
2022-10-22T22:04:19.800Z,52.79
2022-10-22T22:10:48.093Z,52.81
2022-10-22T22:17:02.440Z,52.82
2022-10-22T22:23:28.406Z,52.85
2022-10-22T22:29:45.602Z,52.89
2022-10-22T22:36:08.771Z,52.94
2022-10-22T22:42:25.972Z,52.99
2022-10-22T22:48:30.530Z,53.07
2022-10-22T22:54:59.699Z,53.13
2022-10-22T23:01:06.790Z,53.14
2022-10-22T23:07:16.512Z,53.18
2022-10-22T23:13:36.418Z,53.21
2022-10-22T23:26:32.324Z,53.25
2022-10-22T23:32:27.401Z,53.30
2022-10-22T23:38:26.421Z,53.34
2022-10-22T23:51:47.739Z,53.52
2022-10-22T23:57:53.514Z,53.58
